createdAt,value
2023-04-16T00:02:42.480Z,6.69
2023-04-16T00:05:29.256Z,6.82
2023-04-16T00:08:15.825Z,6.53
2023-04-16T00:11:02.198Z,6.55
2023-04-16T00:13:48.555Z,6.73
2023-04-16T00:16:34.838Z,6.65
2023-04-16T00:19:21.022Z,6.79
2023-04-16T00:22:07.567Z,6.64
2023-04-16T00:24:54.198Z,6.43
2023-04-16T00:27:40.342Z,6.80
2023-04-16T00:30:26.714Z,6.67
2023-04-16T00:33:12.940Z,6.60
2023-04-16T00:35:59.709Z,6.88
2023-04-16T00:38:46.167Z,6.83
2023-04-16T00:41:33.873Z,6.54
2023-04-16T00:44:20.021Z,6.78
2023-04-16T00:47:07.603Z,6.83
2023-04-16T00:49:54.500Z,6.88
2023-04-16T00:52:40.882Z,6.81
2023-04-16T00:55:27.350Z,6.75
2023-04-16T00:58:13.855Z,6.75
2023-04-16T01:01:01.596Z,6.51
2023-04-16T01:03:49.368Z,6.81
2023-04-16T01:06:36.273Z,6.47
2023-04-16T01:09:22.367Z,6.84
2023-04-16T01:12:08.707Z,6.77
2023-04-16T01:14:55.562Z,6.61
2023-04-16T01:17:42.038Z,6.59
2023-04-16T01:20:29.711Z,6.82
2023-04-16T01:23:18.445Z,6.77
2023-04-16T01:26:05.048Z,6.78
2023-04-16T01:28:51.132Z,6.79
2023-04-16T01:31:37.451Z,6.70
2023-04-16T01:34:43.724Z,6.41
2023-04-16T01:37:30.988Z,6.43
2023-04-16T01:40:18.530Z,6.84
2023-04-16T01:43:05.105Z,6.86
2023-04-16T01:45:54.031Z,6.55
2023-04-16T01:48:40.373Z,6.53
2023-04-16T01:51:27.363Z,6.69
2023-04-16T01:54:13.824Z,6.51
2023-04-16T01:57:01.693Z,6.91
2023-04-16T01:59:48.303Z,6.74
2023-04-16T02:02:36.314Z,6.49
2023-04-16T02:05:23.332Z,6.75
2023-04-16T02:08:09.778Z,6.85
2023-04-16T02:10:56.919Z,6.84
2023-04-16T02:13:44.023Z,6.74
2023-04-16T02:16:31.143Z,6.86
2023-04-16T02:19:40.374Z,6.76
2023-04-16T02:22:28.142Z,6.67
2023-04-16T02:25:14.861Z,6.46
2023-04-16T02:28:03.410Z,6.64
2023-04-16T02:30:55.074Z,6.36
2023-04-16T02:33:41.739Z,6.50
2023-04-16T02:36:28.053Z,6.54
2023-04-16T02:39:15.431Z,6.59
2023-04-16T02:42:02.647Z,6.80
2023-04-16T02:44:49.375Z,6.66
2023-04-16T02:47:36.118Z,6.59
2023-04-16T02:50:22.601Z,6.18
2023-04-16T02:53:10.665Z,6.63
2023-04-16T02:55:57.195Z,6.65
2023-04-16T02:58:43.502Z,6.53
2023-04-16T03:01:30.221Z,6.42
2023-04-16T03:04:16.963Z,6.35
2023-04-16T03:07:03.224Z,6.61
2023-04-16T03:09:49.464Z,6.39
2023-04-16T03:12:36.286Z,6.73
2023-04-16T03:15:27.204Z,6.67
2023-04-16T03:18:13.733Z,6.53
2023-04-16T03:20:59.949Z,6.71
2023-04-16T03:23:46.466Z,6.47
2023-04-16T03:26:33.057Z,6.28
2023-04-16T03:29:19.618Z,6.48
2023-04-16T03:32:07.418Z,6.52
2023-04-16T03:34:53.968Z,6.59
2023-04-16T03:37:40.771Z,6.49
2023-04-16T03:40:27.411Z,6.14
2023-04-16T03:43:14.379Z,6.51
2023-04-16T03:46:00.549Z,6.33
2023-04-16T03:48:47.082Z,6.57
2023-04-16T03:51:33.519Z,6.34
2023-04-16T03:54:22.452Z,6.36
2023-04-16T03:57:15.066Z,6.60
2023-04-16T04:00:01.946Z,6.29
2023-04-16T04:03:00.632Z,6.59
2023-04-16T04:05:47.117Z,6.39
2023-04-16T04:08:36.718Z,6.40
2023-04-16T04:11:24.360Z,6.52
2023-04-16T04:14:13.482Z,6.46
2023-04-16T04:16:59.700Z,6.56
2023-04-16T04:19:58.091Z,6.38
2023-04-16T04:22:48.022Z,6.50
2023-04-16T04:25:35.310Z,6.57
2023-04-16T04:28:21.654Z,6.56
2023-04-16T04:31:07.960Z,6.23
2023-04-16T04:33:54.176Z,6.15
2023-04-16T04:36:41.033Z,6.44
2023-04-16T04:39:27.212Z,6.48
2023-04-16T04:42:14.255Z,6.60
2023-04-16T04:45:00.960Z,6.53
2023-04-16T04:47:50.101Z,6.49
2023-04-16T04:50:37.012Z,6.41
2023-04-16T04:53:24.110Z,6.62
2023-04-16T04:56:12.801Z,6.30
2023-04-16T04:59:00.161Z,6.60
2023-04-16T05:01:46.417Z,6.50
2023-04-16T05:04:32.888Z,6.33
2023-04-16T05:07:19.358Z,6.52
2023-04-16T05:10:06.579Z,6.47
2023-04-16T05:12:52.961Z,6.56
2023-04-16T05:15:39.343Z,6.58
2023-04-16T05:18:25.563Z,6.57
2023-04-16T05:21:11.882Z,6.46
2023-04-16T05:23:58.874Z,6.62
2023-04-16T05:26:45.138Z,6.52
2023-04-16T05:29:31.472Z,6.40
2023-04-16T05:32:17.793Z,6.43
2023-04-16T05:35:04.684Z,6.31
2023-04-16T05:37:50.936Z,6.33
2023-04-16T05:40:37.365Z,6.72
2023-04-16T05:43:23.817Z,6.57
2023-04-16T05:46:10.159Z,6.64
2023-04-16T05:48:56.516Z,6.52
2023-04-16T05:51:42.856Z,6.48
2023-04-16T05:54:29.222Z,6.66
2023-04-16T05:57:15.693Z,6.53
2023-04-16T06:00:02.408Z,6.64
2023-04-16T06:02:58.374Z,6.77
2023-04-16T06:05:45.137Z,6.42
2023-04-16T06:08:31.374Z,6.67
2023-04-16T06:11:17.863Z,6.52
2023-04-16T06:14:04.088Z,6.38
2023-04-16T06:16:50.289Z,6.57
2023-04-16T06:19:36.723Z,6.86
2023-04-16T06:22:24.343Z,6.67
2023-04-16T06:25:10.547Z,6.74
2023-04-16T06:27:56.723Z,6.62
2023-04-16T06:30:44.521Z,6.66
2023-04-16T06:33:31.108Z,6.75
2023-04-16T06:36:17.277Z,6.65
2023-04-16T06:39:03.403Z,6.84
2023-04-16T06:41:49.744Z,6.86
2023-04-16T06:44:37.346Z,7.00
2023-04-16T06:47:23.833Z,6.84
2023-04-16T06:50:10.293Z,6.78
2023-04-16T06:52:57.172Z,7.00
2023-04-16T06:55:43.585Z,6.90
2023-04-16T06:58:29.998Z,6.75
2023-04-16T07:01:17.701Z,7.05
2023-04-16T07:04:04.418Z,6.68
2023-04-16T07:06:51.013Z,6.97
2023-04-16T07:09:40.132Z,6.81
2023-04-16T07:12:27.182Z,6.94
2023-04-16T07:15:13.578Z,7.21
2023-04-16T07:18:00.182Z,7.39
2023-04-16T07:20:47.522Z,7.50
2023-04-16T07:23:34.587Z,7.33
2023-04-16T07:26:21.378Z,7.28
2023-04-16T07:29:08.574Z,7.37
2023-04-16T07:31:55.529Z,7.33
2023-04-16T07:34:41.993Z,7.66
2023-04-16T07:37:28.425Z,7.80
2023-04-16T07:40:14.845Z,7.82
2023-04-16T07:43:01.587Z,7.86
2023-04-16T07:45:48.379Z,7.90
2023-04-16T07:48:34.640Z,7.85
2023-04-16T07:51:20.857Z,7.88
2023-04-16T07:54:07.234Z,7.89
2023-04-16T07:56:53.434Z,8.35
2023-04-16T07:59:40.006Z,8.19
2023-04-16T08:02:26.546Z,7.87
2023-04-16T08:05:13.321Z,8.06
2023-04-16T08:07:59.877Z,7.83
2023-04-16T08:10:46.320Z,8.21
2023-04-16T08:13:33.631Z,8.23
2023-04-16T08:16:20.486Z,8.31
2023-04-16T08:19:07.513Z,8.24
2023-04-16T08:21:54.418Z,7.86
2023-04-16T08:24:40.860Z,8.36
2023-04-16T08:27:27.188Z,8.33
2023-04-16T08:30:13.494Z,8.16
2023-04-16T08:33:00.195Z,7.97
2023-04-16T08:35:47.045Z,8.22
2023-04-16T08:38:33.616Z,8.10
2023-04-16T08:41:22.261Z,8.33
2023-04-16T08:44:11.873Z,8.27
2023-04-16T08:46:59.652Z,8.43
2023-04-16T08:49:46.238Z,8.56
2023-04-16T08:52:34.209Z,8.43
2023-04-16T08:55:29.354Z,8.62
2023-04-16T08:58:19.909Z,8.50
2023-04-16T09:01:09.737Z,8.74
2023-04-16T09:03:56.829Z,8.94
2023-04-16T09:06:44.162Z,8.97
2023-04-16T09:09:33.406Z,8.51
2023-04-16T09:12:24.044Z,8.60
2023-04-16T09:15:12.192Z,9.00
2023-04-16T09:17:59.043Z,9.10
2023-04-16T09:20:45.963Z,9.07
2023-04-16T09:23:32.495Z,8.83
2023-04-16T09:26:20.188Z,9.19
2023-04-16T09:29:06.751Z,9.28
2023-04-16T09:32:04.391Z,9.14
2023-04-16T09:35:01.834Z,9.29
2023-04-16T09:37:57.273Z,9.08
2023-04-16T09:40:44.029Z,9.14
2023-04-16T09:43:31.905Z,9.04
2023-04-16T09:46:18.472Z,9.16
2023-04-16T09:49:09.453Z,8.84
2023-04-16T09:51:57.092Z,8.86
2023-04-16T09:54:51.746Z,8.91
2023-04-16T09:57:38.868Z,9.12
2023-04-16T10:00:25.522Z,8.80
2023-04-16T10:03:12.294Z,9.05
2023-04-16T10:06:09.203Z,9.14
2023-04-16T10:08:58.443Z,8.81
2023-04-16T10:11:45.895Z,8.92
2023-04-16T10:14:33.731Z,8.70
2023-04-16T10:17:21.502Z,8.78
2023-04-16T10:20:08.695Z,8.82
2023-04-16T10:22:56.053Z,8.85
2023-04-16T10:25:43.102Z,8.78
2023-04-16T10:28:30.294Z,8.65
2023-04-16T10:31:17.774Z,8.73
2023-04-16T10:34:06.566Z,8.70
2023-04-16T10:36:54.173Z,8.78
2023-04-16T10:39:40.350Z,8.72
2023-04-16T10:42:27.440Z,8.62
2023-04-16T10:45:14.038Z,8.55
2023-04-16T10:48:05.132Z,8.36
2023-04-16T10:50:58.334Z,8.55
2023-04-16T10:53:44.561Z,8.48
2023-04-16T10:56:36.037Z,8.60
2023-04-16T10:59:23.825Z,8.64
2023-04-16T11:02:18.837Z,8.41
2023-04-16T11:05:06.586Z,8.58
2023-04-16T11:07:53.267Z,8.62
2023-04-16T11:10:39.741Z,8.10
2023-04-16T11:13:26.587Z,8.32
2023-04-16T11:16:14.706Z,8.50
2023-04-16T11:19:01.849Z,8.45
2023-04-16T11:21:49.152Z,8.45
2023-04-16T11:24:36.098Z,8.34
2023-04-16T11:27:23.788Z,8.32
2023-04-16T11:30:10.499Z,8.41
2023-04-16T11:32:57.039Z,8.22
2023-04-16T11:35:45.894Z,8.33
2023-04-16T11:38:36.703Z,8.51
2023-04-16T11:41:23.136Z,8.51
2023-04-16T11:44:27.302Z,8.44
2023-04-16T11:47:13.790Z,8.27
2023-04-16T11:50:22.691Z,8.20
2023-04-16T11:53:09.360Z,8.34
2023-04-16T11:55:55.658Z,8.29
2023-04-16T11:58:43.129Z,8.25
2023-04-16T12:01:30.148Z,8.11
2023-04-16T12:04:18.806Z,8.28
2023-04-16T12:07:14.881Z,8.18
2023-04-16T12:10:08.406Z,8.07
2023-04-16T12:12:55.934Z,8.18
2023-04-16T12:15:47.469Z,8.27
2023-04-16T12:18:34.134Z,8.14
2023-04-16T12:21:20.538Z,8.29
2023-04-16T12:24:08.242Z,7.99
2023-04-16T12:27:03.023Z,8.10
2023-04-16T12:30:03.843Z,8.00
2023-04-16T12:32:52.512Z,8.25
2023-04-16T12:35:41.486Z,8.32
2023-04-16T12:38:28.025Z,8.08
2023-04-16T12:41:14.128Z,8.26
2023-04-16T12:44:09.247Z,8.24
2023-04-16T12:46:55.744Z,8.31
2023-04-16T12:49:42.058Z,8.01
2023-04-16T12:52:28.387Z,8.11
2023-04-16T12:55:14.907Z,8.11
2023-04-16T12:58:01.547Z,8.24
2023-04-16T13:00:47.942Z,8.10
2023-04-16T13:03:37.112Z,8.24
2023-04-16T13:06:23.847Z,8.32
2023-04-16T13:09:10.372Z,8.18
2023-04-16T13:11:56.788Z,7.97
2023-04-16T13:14:44.962Z,8.07
2023-04-16T13:17:31.861Z,8.00
2023-04-16T13:20:18.361Z,8.20
2023-04-16T13:23:05.130Z,8.38
2023-04-16T13:25:51.693Z,8.05
2023-04-16T13:28:38.124Z,8.20
2023-04-16T13:31:24.550Z,8.59
2023-04-16T13:34:11.536Z,8.33
2023-04-16T13:36:58.123Z,8.44
2023-04-16T13:39:45.159Z,8.66
2023-04-16T13:42:32.382Z,8.70
2023-04-16T13:45:20.441Z,8.88
2023-04-16T13:48:06.981Z,8.93
2023-04-16T13:50:53.263Z,8.80
2023-04-16T13:53:39.605Z,8.64
2023-04-16T13:56:26.013Z,8.91
2023-04-16T13:59:12.771Z,8.66
2023-04-16T14:01:59.473Z,8.85
2023-04-16T14:04:46.159Z,8.78
2023-04-16T14:07:32.590Z,8.80
2023-04-16T14:10:19.361Z,8.77
2023-04-16T14:13:05.699Z,8.58
2023-04-16T14:15:55.757Z,8.75
2023-04-16T14:18:42.416Z,8.67
2023-04-16T14:21:28.785Z,8.72
2023-04-16T14:24:15.377Z,8.43
2023-04-16T14:27:02.461Z,8.47
2023-04-16T14:29:48.866Z,8.64
2023-04-16T14:32:36.158Z,8.57
2023-04-16T14:35:23.111Z,8.56
2023-04-16T14:38:09.348Z,8.61
2023-04-16T14:40:55.829Z,8.41
2023-04-16T14:43:42.399Z,8.57
2023-04-16T14:46:28.903Z,8.42
2023-04-16T14:49:15.653Z,8.56
2023-04-16T14:52:02.667Z,8.62
2023-04-16T14:54:48.906Z,8.54
2023-04-16T14:57:35.371Z,8.41
2023-04-16T15:00:21.855Z,8.52
2023-04-16T15:03:08.209Z,8.37
2023-04-16T15:05:55.464Z,8.60
2023-04-16T15:08:42.458Z,8.32
2023-04-16T15:11:28.867Z,8.55
2023-04-16T15:14:15.171Z,8.49
2023-04-16T15:17:01.470Z,8.48
2023-04-16T15:19:48.131Z,8.53
2023-04-16T15:22:34.493Z,8.49
2023-04-16T15:25:21.114Z,8.54
2023-04-16T15:28:07.261Z,8.44
2023-04-16T15:30:54.039Z,8.49
2023-04-16T15:33:40.869Z,8.40
2023-04-16T15:36:27.156Z,8.23
2023-04-16T15:39:13.554Z,8.20
2023-04-16T15:42:01.780Z,8.14
2023-04-16T15:44:49.165Z,7.99
2023-04-16T15:47:36.224Z,8.25
2023-04-16T15:50:22.773Z,8.28
2023-04-16T15:53:09.037Z,8.28
2023-04-16T15:55:55.685Z,8.32
2023-04-16T15:58:42.074Z,8.52
2023-04-16T16:01:28.269Z,8.48
2023-04-16T16:04:14.678Z,8.56
2023-04-16T16:07:02.764Z,8.48
2023-04-16T16:09:48.943Z,8.23
2023-04-16T16:12:35.748Z,8.63
2023-04-16T16:15:22.393Z,8.55
2023-04-16T16:18:08.860Z,8.53
2023-04-16T16:20:58.546Z,8.32
2023-04-16T16:23:45.122Z,8.54
2023-04-16T16:26:32.007Z,8.54
2023-04-16T16:29:18.533Z,8.62
2023-04-16T16:32:05.396Z,8.53
2023-04-16T16:34:51.825Z,8.53
2023-04-16T16:37:38.427Z,8.62
2023-04-16T16:40:25.143Z,8.56
2023-04-16T16:43:11.430Z,8.49
2023-04-16T16:45:57.992Z,8.50
2023-04-16T16:48:44.631Z,8.42
2023-04-16T16:51:33.498Z,8.23
2023-04-16T16:54:19.761Z,8.32
2023-04-16T16:57:06.498Z,8.49
2023-04-16T16:59:52.794Z,8.21
2023-04-16T17:02:39.492Z,8.28
2023-04-16T17:05:26.197Z,8.48
2023-04-16T17:08:13.827Z,8.52
2023-04-16T17:11:03.287Z,8.51
2023-04-16T17:13:49.533Z,8.54
2023-04-16T17:16:36.451Z,8.35
2023-04-16T17:19:22.763Z,8.51
2023-04-16T17:22:09.157Z,8.49
2023-04-16T17:24:55.570Z,7.88
2023-04-16T17:27:41.953Z,7.96
2023-04-16T17:30:31.043Z,8.23
2023-04-16T17:33:17.912Z,8.51
2023-04-16T17:36:04.310Z,8.36
2023-04-16T17:38:50.988Z,8.45
2023-04-16T17:41:37.219Z,8.50
2023-04-16T17:44:25.644Z,8.17
2023-04-16T17:47:12.446Z,8.49
2023-04-16T17:49:58.603Z,8.46
2023-04-16T17:52:47.171Z,7.97
2023-04-16T17:55:33.608Z,8.37
2023-04-16T17:58:20.386Z,8.07
2023-04-16T18:01:06.716Z,8.31
2023-04-16T18:03:53.202Z,8.14
2023-04-16T18:06:39.889Z,8.24
2023-04-16T18:09:26.569Z,8.03
2023-04-16T18:12:12.824Z,8.32
2023-04-16T18:14:59.314Z,8.13
2023-04-16T18:17:46.145Z,8.10
2023-04-16T18:20:32.580Z,8.01
2023-04-16T18:23:19.429Z,7.77
2023-04-16T18:26:08.335Z,8.15
2023-04-16T18:28:55.859Z,8.19
2023-04-16T18:31:42.910Z,8.14
2023-04-16T18:34:29.734Z,7.97
2023-04-16T18:37:16.177Z,8.06
2023-04-16T18:40:05.682Z,7.87
2023-04-16T18:42:52.091Z,8.16
2023-04-16T18:45:40.002Z,7.92
2023-04-16T18:48:26.349Z,7.77
2023-04-16T18:51:14.294Z,8.13
2023-04-16T18:54:02.397Z,8.10
2023-04-16T18:56:48.838Z,7.88
2023-04-16T18:59:35.112Z,7.96
2023-04-16T19:02:21.416Z,7.84
2023-04-16T19:05:08.919Z,7.73
2023-04-16T19:07:55.610Z,8.15
2023-04-16T19:10:42.239Z,7.86
2023-04-16T19:13:30.401Z,7.98
2023-04-16T19:16:16.998Z,7.74
2023-04-16T19:19:03.549Z,7.92
2023-04-16T19:21:50.107Z,7.95
2023-04-16T19:24:36.331Z,7.74
2023-04-16T19:27:23.000Z,7.85
2023-04-16T19:30:09.791Z,8.01
2023-04-16T19:32:56.167Z,7.78
2023-04-16T19:35:43.225Z,7.87
2023-04-16T19:38:31.855Z,7.65
2023-04-16T19:41:18.219Z,7.93
2023-04-16T19:44:05.004Z,7.81
2023-04-16T19:46:51.895Z,7.78
2023-04-16T19:49:38.126Z,7.48
2023-04-16T19:52:24.948Z,7.73
2023-04-16T19:55:11.671Z,7.71
2023-04-16T19:57:59.568Z,7.60
2023-04-16T20:00:47.210Z,7.80
2023-04-16T20:03:33.555Z,7.89
2023-04-16T20:06:20.178Z,7.52
2023-04-16T20:09:06.518Z,7.86
2023-04-16T20:11:52.710Z,7.74
2023-04-16T20:14:38.997Z,7.77
2023-04-16T20:17:26.025Z,7.83
2023-04-16T20:20:15.080Z,7.97
2023-04-16T20:23:01.931Z,7.93
2023-04-16T20:25:48.624Z,8.04
2023-04-16T20:28:36.135Z,7.77
2023-04-16T20:31:23.023Z,7.89
2023-04-16T20:34:09.467Z,7.95
2023-04-16T20:36:55.911Z,7.91
2023-04-16T20:39:42.601Z,7.81
2023-04-16T20:42:32.080Z,7.88
2023-04-16T20:45:18.792Z,7.91
2023-04-16T20:48:05.527Z,8.02
2023-04-16T20:50:58.416Z,7.84
2023-04-16T20:53:45.499Z,7.92
2023-04-16T20:56:31.844Z,7.99
2023-04-16T20:59:18.180Z,7.60
2023-04-16T21:02:04.898Z,7.72
2023-04-16T21:04:51.217Z,7.87
2023-04-16T21:07:37.790Z,7.94
2023-04-16T21:10:24.162Z,7.77
2023-04-16T21:13:13.385Z,7.91
2023-04-16T21:15:59.675Z,7.83
2023-04-16T21:18:46.124Z,7.90
2023-04-16T21:21:33.064Z,7.80
2023-04-16T21:24:19.244Z,7.62
2023-04-16T21:27:05.830Z,7.79
2023-04-16T21:29:52.683Z,7.69
2023-04-16T21:32:39.206Z,7.81
2023-04-16T21:35:26.000Z,7.72
2023-04-16T21:38:12.512Z,7.72
2023-04-16T21:40:59.227Z,7.82
2023-04-16T21:43:45.772Z,8.12
2023-04-16T21:46:32.028Z,7.99
2023-04-16T21:49:18.696Z,7.99
2023-04-16T21:52:05.328Z,7.80
2023-04-16T21:54:51.942Z,7.91
2023-04-16T21:57:38.293Z,7.87
2023-04-16T22:00:25.001Z,7.94
2023-04-16T22:03:12.383Z,7.83
2023-04-16T22:06:01.412Z,7.94
2023-04-16T22:08:49.793Z,7.85
2023-04-16T22:11:36.532Z,7.80
2023-04-16T22:14:22.630Z,8.01
2023-04-16T22:17:09.318Z,7.63
2023-04-16T22:19:55.650Z,7.71
2023-04-16T22:22:42.871Z,7.84
2023-04-16T22:25:29.418Z,7.87
2023-04-16T22:28:16.125Z,7.80
2023-04-16T22:31:02.393Z,7.85
2023-04-16T22:33:48.604Z,7.50
2023-04-16T22:36:35.396Z,7.68
2023-04-16T22:39:21.632Z,7.74
2023-04-16T22:42:08.217Z,7.62
2023-04-16T22:44:54.821Z,7.60
2023-04-16T22:47:41.687Z,7.44
2023-04-16T22:50:28.498Z,7.71
2023-04-16T22:53:14.780Z,7.60
2023-04-16T22:56:01.276Z,7.42
2023-04-16T22:58:50.740Z,7.04
2023-04-16T23:01:37.063Z,7.46
2023-04-16T23:04:23.669Z,7.20
2023-04-16T23:07:10.433Z,7.32
2023-04-16T23:09:57.006Z,7.53
2023-04-16T23:12:43.239Z,7.27
2023-04-16T23:15:29.920Z,7.49
2023-04-16T23:18:16.204Z,7.48
2023-04-16T23:21:02.394Z,7.39
2023-04-16T23:23:48.778Z,7.11
2023-04-16T23:26:35.081Z,7.33
2023-04-16T23:29:21.424Z,7.71
2023-04-16T23:32:08.109Z,7.56
2023-04-16T23:34:54.402Z,7.40
2023-04-16T23:37:40.948Z,7.69
2023-04-16T23:40:27.275Z,7.46
2023-04-16T23:43:13.706Z,7.77
2023-04-16T23:46:00.417Z,7.71
2023-04-16T23:48:46.925Z,7.72
2023-04-16T23:51:33.506Z,7.58
2023-04-16T23:54:21.390Z,7.64
2023-04-16T23:57:07.922Z,7.66
2023-04-16T23:59:54.263Z,7.73
